Time;durP1;ratioP1;P1;durP2;ratioP2;P2;SDS_P1;SDS_P2;PMS_P1;PMS_P2;Temp;Humidity;BMP_temperature;BMP_pressure;BME280_temperature;BME280_humidity;BME280_pressure;Samples;Min_cycle;Max_cycle;Signal;HPM_P1;HPM_P2
2022/12/22 03:26:27;;;;;;;60.92;30.13;;;9.10;99.90;;;;;;5051512;28;20721;-74
2022/12/22 03:28:53;;;;;;;56.30;29.00;;;9.10;99.90;;;;;;5050813;28;20025;-74
2022/12/22 03:31:19;;;;;;;53.50;28.98;;;9.00;99.90;;;;;;5051883;28;20357;-75
2022/12/22 03:33:44;;;;;;;54.85;29.20;;;9.10;99.90;;;;;;5038192;28;20040;-73
2022/12/22 03:36:10;;;;;;;66.15;31.10;;;9.10;99.90;;;;;;5051486;28;20111;-74
2022/12/22 03:38:36;;;;;;;52.50;28.48;;;9.00;99.90;;;;;;5052514;28;20021;-73
2022/12/22 03:41:01;;;;;;;57.10;28.42;;;9.10;99.90;;;;;;5052075;28;20110;-74
2022/12/22 03:48:39;;;;;;;63.13;31.70;;;9.00;99.90;;;;;;5052582;28;20028;-73
2022/12/22 03:51:05;;;;;;;66.15;30.42;;;9.10;99.90;;;;;;5054222;28;20021;-73
2022/12/22 03:53:31;;;;;;;60.75;29.98;;;9.00;99.90;;;;;;5055327;28;20147;-73
2022/12/22 03:55:59;;;;;;;62.92;30.60;;;9.00;99.90;;;;;;5054956;28;20036;-73
2022/12/22 03:58:25;;;;;;;65.28;29.88;;;9.10;99.90;;;;;;5054145;28;20466;-74
2022/12/22 04:00:50;;;;;;;53.10;27.88;;;9.00;99.90;;;;;;5054825;28;20032;-74
2022/12/22 04:03:17;;;;;;;54.55;28.33;;;9.00;99.90;;;;;;5055015;28;20036;-75
2022/12/22 04:05:44;;;;;;;52.63;27.92;;;9.10;99.90;;;;;;5054662;28;20037;-73
2022/12/22 04:08:09;;;;;;;59.00;29.80;;;9.10;99.90;;;;;;5054904;28;20029;-73
2022/12/22 04:13:19;;;;;;;63.10;29.23;;;9.10;99.90;;;;;;5055398;28;20091;-74
2022/12/22 04:15:45;;;;;;;71.70;34.38;;;9.10;99.90;;;;;;5055377;28;20469;-73
2022/12/22 04:18:10;;;;;;;65.88;31.92;;;9.10;99.90;;;;;;5053731;28;20013;-74
2022/12/22 04:20:36;;;;;;;70.60;32.72;;;9.10;99.90;;;;;;5054547;28;20021;-72
2022/12/22 04:23:03;;;;;;;71.43;33.83;;;9.10;99.90;;;;;;5054333;28;20071;-73
2022/12/22 04:25:29;;;;;;;73.55;33.35;;;9.10;99.90;;;;;;5053933;28;20126;-73
2022/12/22 04:27:54;;;;;;;70.55;34.60;;;9.20;99.90;;;;;;5054655;28;20416;-74
2022/12/22 04:30:20;;;;;;;73.78;35.67;;;9.10;99.90;;;;;;5054672;28;20020;-74
2022/12/22 04:32:45;;;;;;;72.03;34.83;;;9.20;99.90;;;;;;5044234;28;20403;-74
2022/12/22 04:35:11;;;;;;;67.60;32.75;;;8.60;99.90;;;;;;5049549;28;20029;-73
2022/12/22 04:37:37;;;;;;;68.45;35.22;;;9.30;99.90;;;;;;5054124;28;20033;-74
2022/12/22 04:40:03;;;;;;;72.55;35.03;;;9.30;99.90;;;;;;5053770;28;20059;-73
2022/12/22 04:42:28;;;;;;;69.60;34.42;;;9.30;99.90;;;;;;5054060;28;20064;-74
2022/12/22 04:44:54;;;;;;;70.20;34.30;;;9.30;99.90;;;;;;5054778;28;20503;-73
2022/12/22 04:47:20;;;;;;;68.70;33.35;;;9.20;99.90;;;;;;5053727;28;20029;-73
2022/12/22 04:49:46;;;;;;;71.10;33.05;;;9.20;99.90;;;;;;5054033;28;20056;-73
2022/12/22 04:52:11;;;;;;;72.75;34.38;;;9.20;99.90;;;;;;5053721;28;20227;-74
2022/12/22 04:54:37;;;;;;;75.57;35.17;;;9.20;99.90;;;;;;5053532;28;20055;-74
2022/12/22 04:57:02;;;;;;;74.80;34.80;;;9.20;99.90;;;;;;5054092;28;20029;-73
2022/12/22 04:59:28;;;;;;;76.35;34.53;;;9.30;99.90;;;;;;5054798;28;20087;-73
2022/12/22 05:01:54;;;;;;;77.40;35.05;;;9.30;99.90;;;;;;5053629;28;20068;-72
2022/12/22 05:04:19;;;;;;;90.97;34.95;;;9.30;99.90;;;;;;5054691;28;20020;-74
2022/12/22 05:06:45;;;;;;;76.90;34.60;;;9.30;99.90;;;;;;5055554;28;20424;-72
2022/12/22 05:09:10;;;;;;;78.55;35.17;;;9.30;99.90;;;;;;5054475;28;20024;-72
2022/12/22 05:11:36;;;;;;;95.25;34.70;;;9.30;99.90;;;;;;5057428;28;20032;-72
2022/12/22 05:14:03;;;;;;;75.55;34.92;;;9.30;99.90;;;;;;5058881;28;20028;-74
2022/12/22 05:16:29;;;;;;;85.90;35.88;;;9.30;99.90;;;;;;5059347;28;20028;-74
2022/12/22 05:18:59;;;;;;;76.60;33.65;;;9.30;99.90;;;;;;5054676;28;20021;-73
2022/12/22 05:21:25;;;;;;;79.90;34.42;;;9.20;99.90;;;;;;5052957;28;20078;-73
2022/12/22 05:23:50;;;;;;;77.72;31.45;;;9.30;99.90;;;;;;5052959;28;20127;-73
2022/12/22 05:26:17;;;;;;;72.40;29.65;;;9.20;99.90;;;;;;5053357;28;20035;-72
2022/12/22 05:28:45;;;;;;;65.32;29.50;;;9.20;99.90;;;;;;5053367;28;20029;-72
2022/12/22 05:31:16;;;;;;;79.30;32.25;;;9.30;99.90;;;;;;5052694;28;20087;-73
2022/12/22 05:33:41;;;;;;;79.00;31.10;;;9.30;99.90;;;;;;5038697;28;20037;-72
2022/12/22 05:36:07;;;;;;;77.20;31.55;;;9.20;99.90;;;;;;5051965;28;20044;-72
2022/12/22 05:38:33;;;;;;;74.53;30.25;;;9.30;99.90;;;;;;5053206;28;20029;-72
2022/12/22 05:40:58;;;;;;;74.32;31.80;;;9.20;99.90;;;;;;5053273;28;20548;-73
2022/12/22 05:43:24;;;;;;;65.25;30.13;;;9.20;99.90;;;;;;5052791;28;20559;-73
2022/12/22 05:45:49;;;;;;;66.78;28.92;;;9.20;99.90;;;;;;5049613;28;20397;-73
2022/12/22 05:48:15;;;;;;;65.45;29.13;;;9.20;99.90;;;;;;5032606;28;20481;-73
2022/12/22 05:50:41;;;;;;;66.00;28.50;;;9.20;99.90;;;;;;5030409;28;20604;-73
2022/12/22 05:53:06;;;;;;;69.50;31.50;;;9.20;99.90;;;;;;5031849;28;20474;-73
2022/12/22 05:55:32;;;;;;;64.28;28.52;;;9.10;99.90;;;;;;5032643;28;20037;-73
2022/12/22 05:58:01;;;;;;;55.97;27.27;;;9.00;99.90;;;;;;5032239;28;20053;-72
2022/12/22 06:00:28;;;;;;;65.60;28.42;;;9.00;99.90;;;;;;5033318;28;20386;-73
2022/12/22 06:02:54;;;;;;;63.15;28.75;;;8.90;99.90;;;;;;5037297;28;20047;-74
2022/12/22 06:05:20;;;;;;;62.22;27.65;;;8.90;99.90;;;;;;5049105;28;20108;-72
2022/12/22 06:07:48;;;;;;;50.70;24.90;;;9.00;99.90;;;;;;5043929;28;20469;-73
2022/12/22 06:10:14;;;;;;;55.00;24.92;;;8.90;99.90;;;;;;5038753;28;20025;-73
2022/12/22 06:12:41;;;;;;;52.63;25.50;;;8.90;99.90;;;;;;5043357;28;20465;-71
2022/12/22 06:15:10;;;;;;;56.03;26.02;;;8.80;99.90;;;;;;5037181;28;20025;-74
2022/12/22 06:17:35;;;;;;;58.85;26.65;;;8.90;99.90;;;;;;5032420;28;20037;-73
2022/12/22 06:20:01;;;;;;;55.80;25.27;;;8.80;99.90;;;;;;5037847;28;20020;-73
2022/12/22 06:22:27;;;;;;;49.63;23.00;;;8.80;99.90;;;;;;5039906;28;20029;-73
2022/12/22 06:24:52;;;;;;;53.22;24.63;;;8.70;99.90;;;;;;5035821;28;20044;-73
2022/12/22 06:27:18;;;;;;;55.75;24.38;;;8.60;99.90;;;;;;5032750;28;20025;-73
2022/12/22 06:29:44;;;;;;;50.67;23.85;;;8.60;99.90;;;;;;5035098;28;20112;-74
2022/12/22 06:32:09;;;;;;;42.72;20.23;;;8.70;99.90;;;;;;5033448;28;20482;-74
2022/12/22 06:34:35;;;;;;;38.22;20.75;;;8.80;99.90;;;;;;5039360;28;20013;-74
2022/12/22 06:37:00;;;;;;;43.75;20.67;;;8.90;99.90;;;;;;5047663;28;20079;-74
2022/12/22 06:39:26;;;;;;;44.42;20.08;;;8.80;99.90;;;;;;5048416;28;20025;-73
2022/12/22 06:44:36;;;;;;;44.67;19.02;;;8.80;99.90;;;;;;5048560;28;20475;-74
2022/12/22 06:47:01;;;;;;;51.72;22.20;;;8.90;99.90;;;;;;5041919;28;20049;-73
2022/12/22 06:49:27;;;;;;;59.83;22.80;;;8.80;99.90;;;;;;5042954;28;20017;-73
2022/12/22 06:51:53;;;;;;;48.65;17.77;;;8.80;99.90;;;;;;5049335;28;20025;-73
2022/12/22 06:54:18;;;;;;;48.95;17.83;;;8.70;99.90;;;;;;5046433;28;20431;-74
2022/12/22 06:56:44;;;;;;;74.70;16.58;;;8.60;99.90;;;;;;5046601;28;20065;-73
2022/12/22 06:59:09;;;;;;;68.57;16.40;;;8.60;99.90;;;;;;5043275;28;20044;-75
2022/12/22 07:01:35;;;;;;;54.70;15.60;;;8.50;99.90;;;;;;5048040;28;20072;-74
2022/12/22 07:04:01;;;;;;;42.95;14.20;;;8.50;99.90;;;;;;5046372;28;20021;-72
2022/12/22 07:06:26;;;;;;;92.70;13.77;;;8.40;99.90;;;;;;5041327;28;20099;-73
2022/12/22 07:08:52;;;;;;;45.63;13.13;;;8.40;99.90;;;;;;5046205;28;20036;-73
2022/12/22 07:11:17;;;;;;;40.40;12.75;;;8.40;99.90;;;;;;5047424;28;20025;-73
2022/12/22 07:13:44;;;;;;;123.53;13.93;;;8.30;99.90;;;;;;5047105;28;20035;-73
2022/12/22 07:16:10;;;;;;;76.45;12.80;;;8.30;99.90;;;;;;5044209;28;20025;-72
2022/12/22 07:18:37;;;;;;;52.83;13.23;;;8.30;99.90;;;;;;5048441;28;20045;-73
2022/12/22 07:21:05;;;;;;;155.63;16.67;;;8.20;99.90;;;;;;5045579;28;20025;-73
2022/12/22 07:23:31;;;;;;;74.25;12.65;;;8.20;99.90;;;;;;5045504;28;20052;-73
2022/12/22 07:25:57;;;;;;;52.40;13.52;;;8.20;99.90;;;;;;5048110;28;20477;-73
2022/12/22 07:28:23;;;;;;;39.20;13.10;;;8.20;99.90;;;;;;5048684;28;20362;-74
2022/12/22 07:30:50;;;;;;;81.10;14.00;;;8.10;99.90;;;;;;5051355;28;20025;-73
2022/12/22 07:33:16;;;;;;;40.85;13.48;;;8.10;99.90;;;;;;5051975;28;20071;-73
2022/12/22 07:35:42;;;;;;;48.63;12.73;;;8.00;99.90;;;;;;5052104;28;20597;-73
2022/12/22 07:38:08;;;;;;;56.67;14.45;;;8.00;99.90;;;;;;5052748;28;20033;-73
2022/12/22 07:40:33;;;;;;;49.92;13.80;;;7.90;99.90;;;;;;5052759;28;20130;-73
2022/12/22 07:43:00;;;;;;;152.65;16.42;;;7.70;99.90;;;;;;5052471;28;20017;-73
2022/12/22 07:45:26;;;;;;;97.28;15.77;;;7.80;99.90;;;;;;5052325;28;20048;-75
2022/12/22 07:47:58;;;;;;;103.95;15.73;;;7.70;99.90;;;;;;5050747;28;20032;-76
2022/12/22 07:50:24;;;;;;;160.50;17.48;;;7.70;99.90;;;;;;5046148;28;20055;-73
2022/12/22 07:52:58;;;;;;;37.10;14.27;;;7.60;99.90;;;;;;5055957;28;20033;-73
2022/12/22 07:55:25;;;;;;;73.90;13.98;;;7.60;99.90;;;;;;5048361;28;20036;-72
2022/12/22 07:57:51;;;;;;;31.73;14.15;;;7.40;99.90;;;;;;5045337;28;20341;-73
2022/12/22 08:00:18;;;;;;;39.22;17.35;;;7.30;99.90;;;;;;5035178;28;20075;-72
2022/12/22 08:02:49;;;;;;;61.47;16.85;;;7.30;99.90;;;;;;5035122;28;20429;-73
2022/12/22 08:05:15;;;;;;;47.35;17.55;;;7.20;99.90;;;;;;5035156;28;20033;-73
2022/12/22 08:07:40;;;;;;;40.15;17.15;;;7.20;99.90;;;;;;5034140;28;20057;-74
2022/12/22 08:10:06;;;;;;;40.03;17.35;;;7.10;99.90;;;;;;5032823;28;20814;-73
2022/12/22 08:12:32;;;;;;;37.38;17.10;;;7.10;99.90;;;;;;5034717;28;20432;-74
2022/12/22 08:14:58;;;;;;;37.47;16.50;;;7.20;99.90;;;;;;5042068;28;20025;-73
2022/12/22 08:17:26;;;;;;;38.28;17.90;;;7.30;99.90;;;;;;5040943;28;20051;-74
2022/12/22 08:19:52;;;;;;;45.05;15.65;;;7.30;99.90;;;;;;5051347;28;20055;-74
2022/12/22 08:22:18;;;;;;;34.28;16.52;;;7.40;99.90;;;;;;5049558;28;20393;-74
2022/12/22 08:24:43;;;;;;;34.38;16.80;;;8.10;99.90;;;;;;5046300;28;20049;-73
2022/12/22 08:27:14;;;;;;;42.70;17.73;;;7.30;99.90;;;;;;5033816;28;20057;-72
2022/12/22 08:29:45;;;;;;;34.42;15.73;;;7.40;99.90;;;;;;5039802;28;20028;-73
2022/12/22 08:32:12;;;;;;;34.10;16.35;;;7.30;99.90;;;;;;5036810;28;20065;-73
2022/12/22 08:34:38;;;;;;;31.60;14.82;;;7.40;99.90;;;;;;5044231;28;20036;-73
2022/12/22 08:37:08;;;;;;;33.85;14.15;;;7.40;99.90;;;;;;5050365;28;20052;-72
2022/12/22 08:39:38;;;;;;;29.70;13.43;;;7.40;99.90;;;;;;5041302;28;20060;-73
2022/12/22 08:42:06;;;;;;;35.50;13.65;;;8.30;99.90;;;;;;5063113;28;20032;-73
2022/12/22 08:44:32;;;;;;;27.92;12.15;;;7.40;99.90;;;;;;5054036;28;20038;-75
2022/12/22 08:46:58;;;;;;;36.25;15.27;;;7.40;99.90;;;;;;5037687;28;20048;-74
2022/12/22 08:49:24;;;;;;;27.85;13.63;;;7.40;99.90;;;;;;5038043;28;20033;-75
2022/12/22 08:51:51;;;;;;;29.42;12.75;;;7.40;99.90;;;;;;5046717;28;20079;-72
2022/12/22 08:54:17;;;;;;;22.50;12.07;;;7.40;99.90;;;;;;5040073;28;20373;-73
2022/12/22 08:56:43;;;;;;;28.67;11.57;;;7.40;99.90;;;;;;5034353;28;20054;-74
2022/12/22 08:59:09;;;;;;;23.52;11.68;;;7.30;99.90;;;;;;5035616;28;20029;-72
2022/12/22 09:01:37;;;;;;;21.60;11.10;;;7.30;99.90;;;;;;5034156;28;20079;-73
2022/12/22 09:04:04;;;;;;;24.55;13.35;;;7.40;99.90;;;;;;5035583;28;20079;-72
2022/12/22 09:06:30;;;;;;;27.40;11.77;;;7.40;99.90;;;;;;5036439;28;20040;-72
2022/12/22 09:08:58;;;;;;;32.33;13.25;;;7.40;99.90;;;;;;5038270;28;20117;-73
2022/12/22 09:11:24;;;;;;;32.42;14.98;;;7.40;99.90;;;;;;5033997;28;20441;-73
2022/12/22 09:13:54;;;;;;;27.40;13.32;;;7.40;99.90;;;;;;5031144;28;20032;-73
2022/12/22 09:16:21;;;;;;;25.92;13.27;;;7.40;99.90;;;;;;5031558;28;20481;-72
2022/12/22 09:18:51;;;;;;;33.08;12.95;;;7.50;99.90;;;;;;5031543;28;20029;-72
2022/12/22 09:21:17;;;;;;;24.48;12.13;;;7.50;99.90;;;;;;5031328;28;20063;-74
2022/12/22 09:23:43;;;;;;;30.73;13.65;;;7.60;99.90;;;;;;5032239;28;20414;-74
2022/12/22 09:26:15;;;;;;;25.67;14.70;;;7.70;99.90;;;;;;5031707;28;20026;-74
2022/12/22 09:28:41;;;;;;;25.52;11.63;;;7.80;99.90;;;;;;5032490;28;20375;-73
2022/12/22 09:31:07;;;;;;;23.10;10.20;;;7.70;99.90;;;;;;5045209;28;20059;-72
2022/12/22 09:33:35;;;;;;;18.17;10.70;;;7.70;99.90;;;;;;5047186;28;20021;-72
2022/12/22 09:36:08;;;;;;;25.08;9.95;;;7.80;99.90;;;;;;5044095;28;20036;-74
2022/12/22 09:38:33;;;;;;;18.95;10.30;;;7.80;99.90;;;;;;5032071;28;20060;-73
2022/12/22 09:41:05;;;;;;;24.02;10.00;;;7.70;99.90;;;;;;5045717;28;20060;-74
2022/12/22 09:43:30;;;;;;;18.05;10.55;;;7.70;99.90;;;;;;5037583;28;20505;-73
2022/12/22 09:45:57;;;;;;;17.05;9.90;;;7.80;99.90;;;;;;5030883;28;20065;-74
2022/12/22 09:48:28;;;;;;;21.83;10.38;;;7.80;99.90;;;;;;5042123;28;20150;-73
2022/12/22 09:50:58;;;;;;;20.55;10.77;;;7.80;99.90;;;;;;5044472;28;20032;-73
2022/12/22 09:53:24;;;;;;;24.38;10.55;;;7.90;99.90;;;;;;5039633;28;20370;-74
2022/12/22 09:55:50;;;;;;;19.02;10.02;;;7.90;99.90;;;;;;5032217;28;20025;-73
2022/12/22 09:58:34;;;;;;;15.60;9.25;;;8.00;99.90;;;;;;5032329;28;20026;-73
2022/12/22 10:01:10;;;;;;;21.40;10.45;;;8.00;99.90;;;;;;5032825;28;20018;-72
2022/12/22 10:03:45;;;;;;;19.83;10.38;;;8.00;99.90;;;;;;5033671;28;20072;-73
2022/12/22 10:06:28;;;;;;;16.33;10.02;;;8.00;99.90;;;;;;5032518;28;20437;-73
2022/12/22 10:08:53;;;;;;;18.30;10.13;;;8.00;99.90;;;;;;5032793;28;20026;-73
2022/12/22 10:11:19;;;;;;;15.50;9.93;;;8.00;99.90;;;;;;5033351;28;20024;-73
2022/12/22 10:13:45;;;;;;;20.40;9.95;;;8.00;99.90;;;;;;5032977;28;20033;-72
2022/12/22 10:16:27;;;;;;;17.90;10.07;;;8.10;99.90;;;;;;5032493;28;20025;-73
2022/12/22 10:19:04;;;;;;;18.98;10.32;;;8.10;99.90;;;;;;5032533;28;20033;-73
2022/12/22 10:21:30;;;;;;;18.10;9.88;;;8.20;99.90;;;;;;5032742;28;20044;-73
2022/12/22 10:23:56;;;;;;;18.42;9.40;;;8.30;99.90;;;;;;5031773;28;20545;-73
2022/12/22 10:26:32;;;;;;;22.15;9.32;;;8.30;99.90;;;;;;5032409;28;20034;-73
2022/12/22 10:29:06;;;;;;;18.02;10.15;;;8.40;99.90;;;;;;5032765;28;20381;-73
2022/12/22 10:31:53;;;;;;;18.15;9.55;;;8.50;99.90;;;;;;5031789;28;20033;-72
2022/12/22 10:34:19;;;;;;;14.13;8.73;;;8.60;99.90;;;;;;5041430;28;20035;-73
2022/12/22 10:36:50;;;;;;;15.35;8.10;;;8.70;99.90;;;;;;5052871;28;20051;-72
2022/12/22 10:39:22;;;;;;;16.02;9.02;;;8.80;99.90;;;;;;5052004;28;20025;-72
2022/12/22 10:41:54;;;;;;;24.00;10.65;;;8.80;99.90;;;;;;5052849;28;20063;-73
2022/12/22 10:44:29;;;;;;;20.95;8.15;;;8.90;99.90;;;;;;5052603;28;20117;-73
2022/12/22 10:46:57;;;;;;;15.38;9.15;;;9.00;99.90;;;;;;5051343;28;20068;-74
2022/12/22 10:49:39;;;;;;;12.25;7.18;;;9.10;99.90;;;;;;5052127;28;20453;-73
2022/12/22 10:52:11;;;;;;;13.77;7.38;;;9.00;99.90;;;;;;5051103;28;20060;-72
2022/12/22 10:54:37;;;;;;;20.70;9.13;;;9.10;99.90;;;;;;5053857;28;20017;-73
2022/12/22 10:57:15;;;;;;;17.30;8.80;;;9.10;99.90;;;;;;5052179;28;20127;-72
2022/12/22 10:59:57;;;;;;;18.42;7.60;;;9.10;99.90;;;;;;5056152;28;20044;-73
2022/12/22 11:02:29;;;;;;;11.65;8.45;;;9.10;99.90;;;;;;5056277;28;20025;-73
2022/12/22 11:05:04;;;;;;;19.65;8.60;;;9.20;99.90;;;;;;5055767;28;20037;-73
2022/12/22 11:07:32;;;;;;;14.23;9.27;;;9.20;99.90;;;;;;5055030;28;20063;-72
2022/12/22 11:09:58;;;;;;;14.23;7.88;;;9.30;99.90;;;;;;5056141;28;20029;-72
2022/12/22 11:13:01;;;;;;;16.08;6.78;;;9.30;99.90;;;;;;5056366;28;20515;-74
2022/12/22 11:15:36;;;;;;;12.10;6.75;;;9.30;99.90;;;;;;5055734;28;20543;-72
2022/12/22 11:18:22;;;;;;;14.73;6.60;;;9.40;99.90;;;;;;5055608;28;20132;-73
2022/12/22 11:21:13;;;;;;;13.18;6.32;;;9.40;99.90;;;;;;5055515;28;20031;-74
2022/12/22 11:24:01;;;;;;;8.95;5.63;;;9.40;99.90;;;;;;5055838;28;20044;-74
2022/12/22 11:26:49;;;;;;;18.27;6.82;;;9.40;99.90;;;;;;5055886;28;20492;-73
2022/12/22 11:29:30;;;;;;;10.30;6.57;;;9.40;99.90;;;;;;5055962;28;20032;-72
2022/12/22 11:32:23;;;;;;;16.52;8.48;;;9.50;99.90;;;;;;5052789;28;20059;-75
2022/12/22 11:35:12;;;;;;;20.38;10.70;;;9.60;99.90;;;;;;5048103;28;20047;-74
2022/12/22 11:37:58;;;;;;;22.17;11.65;;;9.60;99.90;;;;;;5055578;28;20021;-73
2022/12/22 11:40:49;;;;;;;17.50;12.18;;;9.50;99.90;;;;;;5055711;28;20397;-73
2022/12/22 11:43:36;;;;;;;22.80;13.82;;;9.50;99.90;;;;;;5056038;28;20044;-73
2022/12/22 11:46:26;;;;;;;18.00;12.38;;;9.40;99.90;;;;;;5055672;28;20128;-73
2022/12/22 11:49:16;;;;;;;17.33;12.48;;;9.40;99.90;;;;;;5054378;28;20025;-73
2022/12/22 11:52:04;;;;;;;14.32;10.65;;;9.30;99.90;;;;;;5051198;28;20033;-69
2022/12/22 11:54:58;;;;;;;16.45;10.98;;;9.20;99.90;;;;;;5044942;28;20053;-69
2022/12/22 11:57:52;;;;;;;23.05;12.25;;;9.00;99.90;;;;;;5054828;28;20480;-75
2022/12/22 12:00:18;;;;;;;24.60;13.02;;;8.80;99.90;;;;;;5046765;28;20025;-73
2022/12/22 12:03:14;;;;;;;22.50;13.45;;;8.60;99.90;;;;;;5043515;28;20036;-74
2022/12/22 12:06:13;;;;;;;25.20;15.90;;;8.50;99.90;;;;;;5054780;28;20029;-73
2022/12/22 12:09:06;;;;;;;32.17;18.60;;;8.40;99.90;;;;;;5036564;28;20496;-73
2022/12/22 12:11:37;;;;;;;33.95;18.58;;;8.30;99.90;;;;;;5050849;28;20347;-70
2022/12/22 12:14:20;;;;;;;32.78;20.05;;;8.30;99.90;;;;;;5035926;28;20022;-74
2022/12/22 12:17:03;;;;;;;36.40;20.77;;;8.30;99.90;;;;;;5036485;28;20033;-75
2022/12/22 12:19:56;;;;;;;36.95;19.42;;;8.20;99.90;;;;;;5037070;28;20033;-73
2022/12/22 12:22:45;;;;;;;38.55;22.00;;;8.20;99.90;;;;;;5043090;28;20060;-74
2022/12/22 12:25:26;;;;;;;37.00;22.00;;;8.20;99.90;;;;;;5040302;28;20497;-74
2022/12/22 12:27:59;;;;;;;;;;;8.20;99.90;;;;;;5038625;28;20025;-73
2022/12/22 12:30:31;;;;;;;39.50;20.92;;;8.20;99.90;;;;;;5037960;28;20007;-74
2022/12/22 12:33:38;;;;;;;39.50;19.67;;;8.20;99.90;;;;;;5035218;28;20048;-73
2022/12/22 12:36:23;;;;;;;36.85;20.48;;;8.20;99.90;;;;;;5042914;28;20142;-73
2022/12/22 12:39:13;;;;;;;43.22;21.48;;;8.30;99.90;;;;;;5042884;28;20052;-73
2022/12/22 12:42:07;;;;;;;35.13;19.45;;;8.20;99.90;;;;;;5037693;28;20028;-74
2022/12/22 12:44:35;;;;;;;40.47;21.02;;;8.20;99.90;;;;;;5033494;28;20375;-73
2022/12/22 12:47:24;;;;;;;45.95;22.40;;;8.30;99.90;;;;;;5037247;28;20048;-73
2022/12/22 12:49:54;;;;;;;38.58;20.02;;;8.30;99.90;;;;;;5043836;28;20036;-73
2022/12/22 12:53:03;;;;;;;39.03;20.08;;;8.30;99.90;;;;;;5045109;28;20036;-72
2022/12/22 12:55:28;;;;;;;39.17;20.98;;;8.40;99.90;;;;;;5025406;28;20052;-73
2022/12/22 12:57:55;;;;;;;36.08;20.95;;;8.40;99.90;;;;;;5034995;28;20064;-73
2022/12/22 13:00:33;;;;;;;38.67;22.52;;;8.50;99.90;;;;;;5034597;28;20033;-74
2022/12/22 13:03:08;;;;;;;41.08;22.00;;;8.50;99.90;;;;;;5035929;28;20040;-74
2022/12/22 13:05:57;;;;;;;44.63;23.00;;;8.50;99.90;;;;;;5033455;28;20041;-72
2022/12/22 13:08:24;;;;;;;42.40;23.30;;;8.50;99.90;;;;;;5034933;28;20390;-73
2022/12/22 13:10:53;;;;;;;44.92;24.80;;;8.60;99.90;;;;;;5033599;28;20030;-74
2022/12/22 13:13:24;;;;;;;39.10;23.73;;;8.70;99.90;;;;;;5033393;28;20018;-73
2022/12/22 13:15:59;;;;;;;51.28;23.65;;;8.70;99.90;;;;;;5033009;28;20112;-73
2022/12/22 13:18:25;;;;;;;37.15;23.45;;;8.70;99.90;;;;;;5045097;28;20025;-74
2022/12/22 13:21:13;;;;;;;40.47;23.00;;;8.80;99.90;;;;;;5046218;28;20018;-73
2022/12/22 13:23:55;;;;;;;38.90;23.40;;;8.70;99.90;;;;;;5049562;28;20056;-73
2022/12/22 13:26:27;;;;;;;37.78;22.05;;;8.70;99.90;;;;;;5045415;28;20041;-74
2022/12/22 13:28:59;;;;;;;38.72;23.02;;;8.70;99.90;;;;;;5045619;28;20029;-74
2022/12/22 13:31:31;;;;;;;40.65;22.35;;;8.70;99.90;;;;;;5044967;28;20496;-73
2022/12/22 13:34:15;;;;;;;37.20;22.08;;;8.70;99.90;;;;;;5047191;28;20028;-72
2022/12/22 13:36:41;;;;;;;34.63;21.80;;;8.80;99.90;;;;;;5048654;28;20112;-73
2022/12/22 13:39:12;;;;;;;40.90;24.02;;;8.80;99.90;;;;;;5050134;28;20033;-73
2022/12/22 13:41:40;;;;;;;33.58;21.35;;;8.80;99.90;;;;;;5045042;28;20815;-74
2022/12/22 13:44:13;;;;;;;39.50;24.00;;;8.90;99.90;;;;;;5035035;28;20047;-73
2022/12/22 13:46:40;;;;;;;42.38;24.40;;;8.90;99.90;;;;;;5040889;28;20075;-73
2022/12/22 13:49:11;;;;;;;38.40;23.55;;;8.90;99.90;;;;;;5046324;28;20039;-74
2022/12/22 13:51:37;;;;;;;44.85;24.92;;;9.00;99.90;;;;;;5050044;28;20020;-74
2022/12/22 13:54:40;;;;;;;45.90;26.05;;;9.10;99.90;;;;;;5043539;28;20048;-73
2022/12/22 13:57:19;;;;;;;40.70;23.42;;;9.10;99.90;;;;;;5047565;28;20039;-75
2022/12/22 13:59:48;;;;;;;44.92;25.25;;;9.20;99.90;;;;;;5047641;28;20033;-73
2022/12/22 14:02:15;;;;;;;37.92;24.90;;;9.20;99.90;;;;;;5044521;28;20029;-74
2022/12/22 14:04:43;;;;;;;35.80;23.33;;;9.20;99.90;;;;;;5038722;28;20037;-74
2022/12/22 14:07:13;;;;;;;31.00;22.17;;;9.30;99.90;;;;;;5044248;28;20071;-73
2022/12/22 14:09:46;;;;;;;42.17;24.92;;;9.20;99.90;;;;;;5043401;28;20128;-74
2022/12/22 14:12:19;;;;;;;38.72;24.02;;;9.20;99.90;;;;;;5044758;28;20053;-74
2022/12/22 14:14:48;;;;;;;39.00;24.58;;;9.30;99.90;;;;;;5044306;28;20523;-72
2022/12/22 14:17:20;;;;;;;35.72;24.13;;;9.20;99.90;;;;;;5041336;28;20066;-73
2022/12/22 14:19:48;;;;;;;32.88;21.98;;;9.20;99.90;;;;;;5047112;28;20469;-73
2022/12/22 14:22:18;;;;;;;38.58;24.80;;;9.30;99.90;;;;;;5050046;28;20037;-73
2022/12/22 14:25:12;;;;;;;44.00;25.02;;;9.20;99.90;;;;;;5055423;28;20492;-73
2022/12/22 14:27:47;;;;;;;37.88;25.00;;;9.30;99.90;;;;;;5046000;28;20527;-74
2022/12/22 14:30:19;;;;;;;37.00;24.27;;;9.30;99.90;;;;;;5040011;28;20100;-72
2022/12/22 14:32:48;;;;;;;45.55;25.73;;;9.20;99.90;;;;;;5037449;28;20035;-72
2022/12/22 14:35:21;;;;;;;42.38;25.95;;;9.20;99.90;;;;;;5038574;28;20017;-72
2022/12/22 14:37:52;;;;;;;44.58;26.67;;;9.20;99.90;;;;;;5038300;28;20130;-72
2022/12/22 14:40:31;;;;;;;;;;;9.20;99.90;;;;;;5040805;28;20109;-72
2022/12/22 14:42:59;;;;;;;42.65;27.55;;;9.10;99.90;;;;;;5044448;28;19908;-72
2022/12/22 14:45:25;;;;;;;43.78;28.00;;;9.10;99.90;;;;;;5041846;28;20044;-72
2022/12/22 14:47:53;;;;;;;46.95;28.27;;;9.10;99.90;;;;;;5041376;28;20025;-72
2022/12/22 14:50:22;;;;;;;47.92;28.23;;;9.10;99.90;;;;;;5040366;28;20029;-71
2022/12/22 14:52:51;;;;;;;44.67;28.27;;;9.00;99.90;;;;;;5046091;28;20026;-72
2022/12/22 14:55:32;;;;;;;44.40;27.77;;;9.00;99.90;;;;;;5042518;28;20017;-72
2022/12/22 14:58:10;;;;;;;46.78;28.30;;;9.00;99.90;;;;;;5042572;28;20025;-72
2022/12/22 15:00:46;;;;;;;45.45;28.50;;;8.90;99.90;;;;;;5041023;28;20025;-73
2022/12/22 15:03:34;;;;;;;40.78;27.17;;;9.00;99.90;;;;;;5042176;28;20051;-72
2022/12/22 15:06:28;;;;;;;47.92;28.42;;;8.90;99.90;;;;;;5044324;28;20137;-72
2022/12/22 15:09:10;;;;;;;41.28;27.45;;;8.90;99.90;;;;;;5043506;28;20043;-72
2022/12/22 15:11:40;;;;;;;41.20;26.88;;;8.90;99.90;;;;;;5045598;28;20056;-73
2022/12/22 15:14:19;;;;;;;43.05;26.42;;;9.00;99.90;;;;;;5038129;28;20045;-71
2022/12/22 15:16:45;;;;;;;44.97;27.45;;;8.90;99.90;;;;;;5049123;28;20500;-73
2022/12/22 15:19:16;;;;;;;43.55;27.10;;;8.80;99.90;;;;;;5041856;28;20343;-72
2022/12/22 15:21:42;;;;;;;43.22;27.20;;;8.90;99.90;;;;;;5047969;28;20079;-73
2022/12/22 15:24:14;;;;;;;40.55;26.52;;;8.80;99.90;;;;;;5048471;28;20037;-72
2022/12/22 15:26:40;;;;;;;41.83;28.00;;;8.80;99.90;;;;;;5047574;28;20060;-73
2022/12/22 15:29:06;;;;;;;37.92;25.50;;;8.80;99.90;;;;;;5049218;28;20013;-72
2022/12/22 15:31:31;;;;;;;41.53;26.42;;;8.80;99.90;;;;;;5047522;28;20079;-73
2022/12/22 15:33:59;;;;;;;39.05;26.83;;;8.70;99.90;;;;;;5036088;28;20017;-72
2022/12/22 15:36:28;;;;;;;40.50;26.55;;;8.80;99.90;;;;;;5051977;28;20025;-73
2022/12/22 15:38:54;;;;;;;48.92;30.52;;;8.80;99.90;;;;;;5051762;28;20467;-73
2022/12/22 15:41:20;;;;;;;41.95;28.45;;;8.70;99.90;;;;;;5047607;28;20037;-72
2022/12/22 15:43:46;;;;;;;41.92;27.40;;;8.70;99.90;;;;;;5031761;28;20026;-72
2022/12/22 15:46:16;;;;;;;44.13;28.23;;;8.70;99.90;;;;;;5037708;28;20033;-72
2022/12/22 15:48:42;;;;;;;42.33;28.17;;;8.70;99.90;;;;;;5040827;28;20096;-73
2022/12/22 15:51:21;;;;;;;40.75;25.88;;;8.70;99.90;;;;;;5043299;28;20034;-73
2022/12/22 15:53:46;;;;;;;41.38;26.30;;;8.70;99.90;;;;;;5037694;28;20044;-73
2022/12/22 15:56:19;;;;;;;40.10;25.52;;;8.70;99.90;;;;;;5049583;28;20020;-72
2022/12/22 15:58:45;;;;;;;35.55;22.75;;;8.70;99.90;;;;;;5038140;28;20017;-73
2022/12/22 16:01:11;;;;;;;34.33;24.10;;;8.70;99.90;;;;;;5043584;28;20025;-72
2022/12/22 16:03:37;;;;;;;40.47;24.83;;;8.60;99.90;;;;;;5054891;28;20043;-73
2022/12/22 16:06:05;;;;;;;33.08;22.35;;;8.70;99.90;;;;;;5051868;28;20120;-72
2022/12/22 16:08:36;;;;;;;27.58;20.67;;;8.70;99.90;;;;;;5046721;28;20021;-73
2022/12/22 16:11:02;;;;;;;27.70;20.88;;;8.60;99.90;;;;;;5051033;28;20116;-72
2022/12/22 16:13:31;;;;;;;27.42;20.25;;;8.70;99.90;;;;;;5051669;28;20021;-72
2022/12/22 16:15:57;;;;;;;28.80;20.05;;;8.60;99.90;;;;;;5048642;28;20025;-72
2022/12/22 16:18:23;;;;;;;27.20;19.13;;;8.70;99.90;;;;;;5050651;28;20097;-74
2022/12/22 16:20:51;;;;;;;26.00;19.80;;;8.70;99.90;;;;;;5050432;28;20545;-73
2022/12/22 16:23:20;;;;;;;21.75;17.73;;;8.70;99.90;;;;;;5045932;28;20666;-73
2022/12/22 16:25:46;;;;;;;25.73;18.77;;;8.60;99.90;;;;;;5048008;28;20028;-73
2022/12/22 16:28:18;;;;;;;24.75;20.25;;;8.60;99.90;;;;;;5044391;28;20022;-74
2022/12/22 16:30:44;;;;;;;24.35;20.00;;;8.70;99.90;;;;;;5049931;28;20052;-73
2022/12/22 16:33:13;;;;;;;26.85;21.55;;;8.70;99.90;;;;;;5050419;28;20055;-74